createdAt,value
2018-09-10T00:02:03.239Z,2.30
2018-09-10T00:04:07.226Z,2.70
2018-09-10T00:06:11.252Z,2.30
2018-09-10T00:08:15.528Z,2.27
2018-09-10T00:10:19.506Z,2.70
2018-09-10T00:12:23.815Z,2.30
2018-09-10T00:14:28.425Z,2.30
2018-09-10T00:16:32.600Z,2.10
2018-09-10T00:18:36.703Z,2.13
2018-09-10T00:20:40.760Z,2.63
2018-09-10T00:22:44.783Z,2.30
2018-09-10T00:24:49.304Z,2.10
2018-09-10T00:26:53.317Z,2.17
2018-09-10T00:28:57.454Z,2.10
2018-09-10T00:31:01.803Z,2.00
2018-09-10T00:33:05.989Z,2.10
2018-09-10T00:35:10.189Z,2.50
2018-09-10T00:37:14.519Z,2.13
2018-09-10T00:39:18.751Z,2.73
2018-09-10T00:41:22.778Z,2.37
2018-09-10T00:43:27.306Z,2.50
2018-09-10T00:45:31.363Z,2.10
2018-09-10T00:47:35.375Z,2.40
2018-09-10T00:49:39.487Z,2.70
2018-09-10T00:51:43.691Z,2.33
2018-09-10T00:53:47.838Z,2.63
2018-09-10T00:55:52.172Z,2.50
2018-09-10T00:57:56.045Z,2.80
2018-09-10T01:00:00.225Z,2.80
2018-09-10T01:02:04.315Z,2.30
2018-09-10T01:04:08.371Z,2.67
2018-09-10T01:06:12.785Z,2.43
2018-09-10T01:08:17.003Z,2.33
2018-09-10T01:10:21.005Z,2.10
2018-09-10T01:12:25.098Z,2.10
2018-09-10T01:14:29.477Z,2.50
2018-09-10T01:16:33.653Z,2.87
2018-09-10T01:18:37.642Z,2.70
2018-09-10T01:20:42.004Z,3.07
2018-09-10T01:22:46.038Z,3.50
2018-09-10T01:24:49.951Z,2.73
2018-09-10T01:26:54.017Z,2.93
2018-09-10T01:28:57.959Z,3.17
2018-09-10T01:31:02.150Z,3.30
2018-09-10T01:33:10.352Z,2.70
2018-09-10T01:35:16.674Z,3.30
2018-09-10T01:37:20.619Z,2.77
2018-09-10T01:39:24.870Z,2.90
2018-09-10T01:41:28.737Z,2.77
2018-09-10T01:43:33.213Z,2.90
2018-09-10T01:45:37.294Z,3.00
2018-09-10T01:47:41.304Z,2.90
2018-09-10T01:49:45.036Z,2.90
2018-09-10T01:51:49.188Z,2.93
2018-09-10T01:53:53.564Z,3.13
2018-09-10T01:55:57.881Z,3.23
2018-09-10T01:58:01.948Z,2.90
2018-09-10T02:00:05.981Z,3.37
2018-09-10T02:02:10.174Z,3.40
2018-09-10T02:04:14.357Z,2.93
2018-09-10T02:06:18.740Z,3.50
2018-09-10T02:08:22.954Z,3.43
2018-09-10T02:10:27.008Z,3.60
2018-09-10T02:12:31.038Z,2.90
2018-09-10T02:14:34.867Z,3.30
2018-09-10T02:16:38.982Z,3.90
2018-09-10T02:18:44.048Z,3.23
2018-09-10T02:20:48.134Z,3.40
2018-09-10T02:22:52.120Z,3.40
2018-09-10T02:24:56.032Z,3.30
2018-09-10T02:27:00.087Z,3.20
2018-09-10T02:29:04.171Z,3.27
2018-09-10T02:31:08.449Z,3.50
2018-09-10T02:33:12.844Z,3.30
2018-09-10T02:35:16.871Z,3.33
2018-09-10T02:37:20.829Z,3.03
2018-09-10T02:39:24.933Z,3.30
2018-09-10T02:41:28.874Z,3.53
2018-09-10T02:43:32.768Z,3.10
2018-09-10T02:45:36.810Z,3.60
2018-09-10T02:47:40.860Z,2.90
2018-09-10T02:49:44.937Z,3.50
2018-09-10T02:51:48.986Z,3.33
2018-09-10T02:53:53.467Z,2.97
2018-09-10T02:55:57.523Z,3.37
2018-09-10T02:58:01.719Z,3.50
2018-09-10T03:00:06.853Z,3.97
2018-09-10T03:02:10.945Z,3.93
2018-09-10T03:04:14.986Z,3.93
2018-09-10T03:06:19.267Z,4.37
2018-09-10T03:08:23.338Z,4.60
2018-09-10T03:10:27.496Z,5.70
2018-09-10T03:12:31.808Z,5.27
2018-09-10T03:14:35.613Z,4.87
2018-09-10T03:16:39.460Z,4.63
2018-09-10T03:18:43.473Z,4.53
2018-09-10T03:20:47.316Z,5.00
2018-09-10T03:22:51.097Z,4.80
2018-09-10T03:24:54.872Z,4.70
2018-09-10T03:26:58.865Z,4.97
2018-09-10T03:29:02.721Z,5.27
2018-09-10T03:31:06.957Z,5.07
2018-09-10T03:33:10.964Z,5.80
2018-09-10T03:35:14.816Z,5.17
2018-09-10T03:37:37.462Z,5.50
2018-09-10T03:39:41.313Z,5.90
2018-09-10T03:41:45.100Z,5.40
2018-09-10T03:43:48.930Z,6.03
2018-09-10T03:45:52.824Z,5.70
2018-09-10T03:47:56.773Z,5.37
2018-09-10T03:50:00.597Z,6.17
2018-09-10T03:52:04.601Z,6.43
2018-09-10T03:54:08.738Z,6.20
2018-09-10T03:56:12.833Z,6.70
2018-09-10T03:58:16.854Z,7.17
2018-09-10T04:00:20.979Z,6.57
2018-09-10T04:02:24.800Z,6.17
2018-09-10T04:04:28.600Z,5.50
2018-09-10T04:06:32.504Z,6.10
2018-09-10T04:08:36.628Z,6.83
2018-09-10T04:10:40.776Z,5.80
2018-09-10T04:12:44.738Z,6.33
2018-09-10T04:14:48.779Z,7.00
2018-09-10T04:16:56.805Z,6.40
2018-09-10T04:19:00.678Z,8.30
2018-09-10T04:21:04.808Z,7.23
2018-09-10T04:23:08.703Z,7.87
2018-09-10T04:25:12.525Z,7.97
2018-09-10T04:27:16.300Z,8.70
2018-09-10T04:29:20.122Z,8.50
2018-09-10T04:31:23.927Z,7.90
2018-09-10T04:33:27.956Z,8.00
2018-09-10T04:35:31.781Z,9.00
2018-09-10T04:37:35.579Z,8.77
2018-09-10T04:39:39.344Z,10.10
2018-09-10T04:41:43.815Z,10.03
2018-09-10T04:43:47.651Z,10.13
2018-09-10T04:45:51.469Z,8.93
2018-09-10T04:47:55.246Z,8.43
2018-09-10T04:49:59.029Z,8.60
2018-09-10T04:52:02.786Z,7.63
2018-09-10T04:54:06.615Z,7.40
2018-09-10T04:56:10.693Z,8.30
2018-09-10T04:58:14.771Z,8.53
2018-09-10T05:00:18.553Z,8.23
2018-09-10T05:02:22.312Z,9.20
2018-09-10T05:04:26.152Z,9.13
2018-09-10T05:06:30.141Z,10.13
2018-09-10T05:08:34.001Z,9.50
2018-09-10T05:10:37.870Z,11.07
2018-09-10T05:12:41.677Z,10.70
2018-09-10T05:14:45.500Z,10.67
2018-09-10T05:16:49.270Z,10.57
2018-09-10T05:18:54.264Z,10.83
2018-09-10T05:20:58.091Z,11.10
2018-09-10T05:23:01.900Z,10.83
2018-09-10T05:25:05.904Z,11.43
2018-09-10T05:27:09.759Z,11.47
2018-09-10T05:29:14.356Z,10.13
2018-09-10T05:31:18.119Z,11.27
2018-09-10T05:33:22.046Z,8.83
2018-09-10T05:35:25.849Z,8.80
2018-09-10T05:37:29.627Z,9.40
2018-09-10T05:39:33.448Z,8.93
2018-09-10T05:41:37.387Z,9.20
2018-09-10T05:43:41.137Z,9.23
2018-09-10T05:45:44.960Z,9.40
2018-09-10T05:47:48.753Z,9.33
2018-09-10T05:49:52.585Z,10.10
2018-09-10T05:51:56.375Z,9.63
2018-09-10T05:54:00.296Z,10.00
2018-09-10T05:56:04.068Z,10.23
2018-09-10T05:58:07.931Z,10.50
2018-09-10T06:00:11.757Z,9.47
2018-09-10T06:02:15.510Z,11.23
2018-09-10T06:04:19.378Z,10.67
2018-09-10T06:06:23.231Z,10.50
2018-09-10T06:08:27.120Z,11.70
2018-09-10T06:10:30.882Z,11.63
2018-09-10T06:12:34.624Z,11.97
2018-09-10T06:14:38.560Z,10.87
2018-09-10T06:16:42.359Z,10.27
2018-09-10T06:18:47.144Z,10.70
2018-09-10T06:20:51.010Z,10.85
2018-09-10T06:22:54.887Z,10.63
2018-09-10T06:24:58.674Z,8.80
2018-09-10T06:27:02.600Z,9.07
2018-09-10T06:29:06.376Z,9.97
2018-09-10T06:31:10.154Z,9.20
2018-09-10T06:33:14.390Z,10.27
2018-09-10T06:35:18.166Z,9.73
2018-09-10T06:37:21.999Z,11.10
2018-09-10T06:39:25.775Z,10.00
2018-09-10T06:41:29.728Z,11.47
2018-09-10T06:43:33.633Z,11.10
2018-09-10T06:45:37.502Z,10.47
2018-09-10T06:47:41.324Z,11.17
2018-09-10T06:49:45.195Z,10.97
2018-09-10T06:51:49.097Z,9.63
2018-09-10T06:53:52.868Z,9.47
2018-09-10T06:55:56.618Z,10.27
2018-09-10T06:58:00.426Z,9.77
2018-09-10T07:00:04.374Z,10.90
2018-09-10T07:02:08.251Z,9.40
2018-09-10T07:04:12.004Z,9.70
2018-09-10T07:06:15.803Z,8.30
2018-09-10T07:08:19.621Z,8.90
2018-09-10T07:10:23.591Z,9.00
2018-09-10T07:12:27.471Z,9.67
2018-09-10T07:14:31.330Z,9.10
2018-09-10T07:16:35.289Z,9.50
2018-09-10T07:18:39.138Z,10.90
2018-09-10T07:20:42.950Z,10.20
2018-09-10T07:22:46.718Z,10.57
2018-09-10T07:24:50.486Z,10.80
2018-09-10T07:26:54.255Z,9.70
2018-09-10T07:29:01.711Z,12.37
2018-09-10T07:31:05.524Z,9.60
2018-09-10T07:33:09.396Z,10.10
2018-09-10T07:35:13.198Z,10.47
2018-09-10T07:37:16.972Z,11.03
2018-09-10T07:39:20.741Z,11.17
2018-09-10T07:41:24.552Z,9.50
2018-09-10T07:43:28.319Z,10.57
2018-09-10T07:45:32.171Z,10.10
2018-09-10T07:47:35.930Z,9.10
2018-09-10T07:49:39.666Z,8.90
2018-09-10T07:51:43.504Z,9.30
2018-09-10T07:53:47.266Z,8.80
2018-09-10T07:55:51.290Z,10.00
2018-09-10T07:57:55.008Z,9.03
2018-09-10T07:59:58.755Z,9.30
2018-09-10T08:02:02.584Z,11.60
2018-09-10T08:04:06.489Z,9.60
2018-09-10T08:06:10.311Z,9.73
2018-09-10T08:08:14.099Z,11.23
2018-09-10T08:10:17.991Z,9.80
2018-09-10T08:12:21.792Z,8.13
2018-09-10T08:14:26.903Z,8.30
2018-09-10T08:16:30.787Z,8.80
2018-09-10T08:18:34.540Z,8.43
2018-09-10T08:20:38.433Z,9.40
2018-09-10T08:22:42.273Z,8.33
2018-09-10T08:24:46.075Z,8.90
2018-09-10T08:26:49.828Z,8.30
2018-09-10T08:28:53.639Z,8.10
2018-09-10T08:30:57.482Z,7.80
2018-09-10T08:33:01.325Z,7.77
2018-09-10T08:35:05.251Z,7.90
2018-09-10T08:37:09.173Z,8.30
2018-09-10T08:39:13.111Z,8.30
2018-09-10T08:41:16.919Z,8.43
2018-09-10T08:43:20.670Z,7.93
2018-09-10T08:45:24.415Z,9.10
2018-09-10T08:47:28.156Z,7.93
2018-09-10T08:49:32.106Z,6.30
2018-09-10T08:51:35.864Z,7.10
2018-09-10T08:53:39.652Z,7.60
2018-09-10T08:55:43.584Z,6.80
2018-09-10T08:57:47.241Z,6.87
2018-09-10T08:59:51.048Z,6.80
2018-09-10T09:01:54.960Z,7.00
2018-09-10T09:03:58.737Z,6.10
2018-09-10T09:06:02.548Z,6.40
2018-09-10T09:08:06.400Z,6.07
2018-09-10T09:10:10.327Z,5.13
2018-09-10T09:12:14.065Z,5.17
2018-09-10T09:14:17.907Z,5.73
2018-09-10T09:16:21.630Z,5.53
2018-09-10T09:18:25.454Z,4.80
2018-09-10T09:20:29.200Z,4.80
2018-09-10T09:22:32.973Z,4.53
2018-09-10T09:24:36.739Z,5.13
2018-09-10T09:26:40.515Z,4.43
2018-09-10T09:28:44.355Z,4.87
2018-09-10T09:30:48.130Z,4.60
2018-09-10T09:32:51.947Z,4.47
2018-09-10T09:34:56.334Z,4.70
2018-09-10T09:37:05.440Z,4.00
2018-09-10T09:39:14.540Z,4.73
2018-09-10T09:41:23.461Z,4.40
2018-09-10T09:43:32.687Z,4.57
2018-09-10T09:45:41.801Z,3.97
2018-09-10T09:47:45.607Z,4.37
2018-09-10T09:49:49.399Z,4.27
2018-09-10T09:51:53.161Z,4.40
2018-09-10T09:53:57.023Z,4.10
2018-09-10T09:56:00.803Z,3.93
2018-09-10T09:58:04.661Z,4.30
2018-09-10T10:00:13.964Z,3.83
2018-09-10T10:02:21.957Z,4.77
2018-09-10T10:04:25.914Z,4.70
2018-09-10T10:06:29.727Z,4.53
2018-09-10T10:08:33.534Z,4.67
2018-09-10T10:10:37.386Z,5.00
2018-09-10T10:12:41.277Z,4.80
2018-09-10T10:14:45.094Z,4.33
2018-09-10T10:16:48.869Z,5.83
2018-09-10T10:18:52.855Z,4.67
2018-09-10T10:20:56.639Z,4.20
2018-09-10T10:23:00.396Z,4.77
2018-09-10T10:25:04.133Z,4.90
2018-09-10T10:27:07.901Z,4.10
2018-09-10T10:29:11.635Z,4.70
2018-09-10T10:31:15.371Z,6.30
2018-09-10T10:33:19.176Z,3.97
2018-09-10T10:35:23.031Z,4.10
2018-09-10T10:37:26.816Z,4.80
2018-09-10T10:39:30.672Z,5.63
2018-09-10T10:41:34.477Z,4.53
2018-09-10T10:43:38.237Z,4.63
2018-09-10T10:45:42.085Z,4.37
2018-09-10T10:47:46.036Z,5.33
2018-09-10T10:49:49.789Z,5.50
2018-09-10T10:51:53.727Z,5.13
2018-09-10T10:53:57.513Z,5.23
2018-09-10T10:56:01.424Z,5.60
2018-09-10T10:58:05.555Z,5.30
2018-09-10T11:00:09.371Z,4.80
2018-09-10T11:02:13.160Z,5.37
2018-09-10T11:04:16.973Z,5.50
2018-09-10T11:06:20.780Z,6.07
2018-09-10T11:08:24.769Z,4.67
2018-09-10T11:10:30.250Z,4.33
2018-09-10T11:12:34.002Z,4.73
2018-09-10T11:14:38.078Z,4.80
2018-09-10T11:16:41.899Z,4.73
2018-09-10T11:18:45.781Z,4.37
2018-09-10T11:20:49.551Z,4.83
2018-09-10T11:22:53.342Z,4.67
2018-09-10T11:24:57.101Z,4.80
2018-09-10T11:27:01.028Z,4.37
2018-09-10T11:29:04.769Z,4.53
2018-09-10T11:31:08.631Z,3.90
2018-09-10T11:33:12.372Z,4.30
2018-09-10T11:35:16.167Z,3.60
2018-09-10T11:37:20.026Z,3.83
2018-09-10T11:39:23.811Z,4.00
2018-09-10T11:41:27.735Z,3.77
2018-09-10T11:43:31.653Z,3.37
2018-09-10T11:45:35.893Z,3.40
2018-09-10T11:47:39.684Z,3.73
2018-09-10T11:49:43.400Z,3.07
2018-09-10T11:51:47.124Z,3.10
2018-09-10T11:53:50.864Z,3.20
2018-09-10T11:55:54.616Z,2.70
2018-09-10T11:57:58.386Z,3.30
2018-09-10T12:00:02.203Z,3.33
2018-09-10T12:02:07.066Z,2.50
2018-09-10T12:04:10.818Z,3.00
2018-09-10T12:06:14.638Z,3.07
2018-09-10T12:08:18.429Z,3.87
2018-09-10T12:10:22.200Z,3.30
2018-09-10T12:12:25.892Z,4.90
2018-09-10T12:14:29.748Z,3.37
2018-09-10T12:16:33.475Z,3.17
2018-09-10T12:18:37.212Z,4.00
2018-09-10T12:20:41.234Z,3.10
2018-09-10T12:22:44.956Z,3.17
2018-09-10T12:24:48.791Z,3.60
2018-09-10T12:26:52.536Z,3.40
2018-09-10T12:28:56.308Z,3.63
2018-09-10T12:31:00.035Z,2.93
2018-09-10T12:33:03.810Z,3.00
2018-09-10T12:35:07.677Z,2.87
2018-09-10T12:37:11.486Z,4.00
2018-09-10T12:39:15.486Z,2.90
2018-09-10T12:41:19.570Z,2.93
2018-09-10T12:43:37.645Z,3.17
2018-09-10T12:45:41.450Z,3.00
2018-09-10T12:47:45.176Z,2.87
2018-09-10T12:49:48.983Z,3.30
2018-09-10T12:51:52.737Z,2.83
2018-09-10T12:53:56.594Z,2.70
2018-09-10T12:56:00.360Z,2.70
2018-09-10T12:58:04.142Z,2.50
2018-09-10T13:00:08.016Z,2.77
2018-09-10T13:02:11.807Z,2.27
2018-09-10T13:04:15.635Z,2.63
2018-09-10T13:06:19.414Z,2.90
2018-09-10T13:08:23.187Z,2.23
2018-09-10T13:10:27.142Z,2.60
2018-09-10T13:12:30.879Z,2.50
2018-09-10T13:14:34.775Z,2.23
2018-09-10T13:16:38.683Z,2.17
2018-09-10T13:18:42.413Z,2.40
2018-09-10T13:20:46.463Z,2.43
2018-09-10T13:22:50.241Z,2.37
2018-09-10T13:24:53.980Z,2.50
2018-09-10T13:26:57.689Z,2.60
2018-09-10T13:29:01.580Z,2.73
2018-09-10T13:31:05.343Z,2.20
2018-09-10T13:33:09.066Z,2.67
2018-09-10T13:35:12.869Z,2.20
2018-09-10T13:37:16.767Z,2.50
2018-09-10T13:39:20.649Z,2.77
2018-09-10T13:41:24.415Z,2.30
2018-09-10T13:43:28.164Z,2.87
2018-09-10T13:45:32.069Z,2.83
2018-09-10T13:47:35.804Z,2.27
2018-09-10T13:49:39.743Z,2.27
2018-09-10T13:51:43.784Z,2.30
2018-09-10T13:53:48.535Z,2.57
2018-09-10T13:55:52.308Z,2.40
2018-09-10T13:57:56.078Z,2.50
2018-09-10T13:59:59.863Z,2.40
2018-09-10T14:02:03.617Z,2.30
2018-09-10T14:04:07.606Z,2.50
2018-09-10T14:06:11.744Z,2.10
2018-09-10T14:08:15.635Z,2.80
2018-09-10T14:10:19.461Z,2.80
2018-09-10T14:12:23.303Z,2.50
2018-09-10T14:14:27.731Z,2.50
2018-09-10T14:16:31.937Z,2.63
2018-09-10T14:18:36.171Z,2.50
2018-09-10T14:20:40.008Z,3.00
2018-09-10T14:22:44.039Z,2.73
2018-09-10T14:24:47.862Z,2.80
2018-09-10T14:26:53.892Z,2.83
2018-09-10T14:28:57.691Z,2.80
2018-09-10T14:31:01.835Z,2.73
2018-09-10T14:33:05.909Z,2.80
2018-09-10T14:35:09.798Z,2.93
2018-09-10T14:37:13.779Z,2.80
2018-09-10T14:39:17.804Z,2.40
2018-09-10T14:41:21.560Z,3.60
2018-09-10T14:43:26.436Z,3.00
2018-09-10T14:45:30.253Z,2.40
2018-09-10T14:47:34.018Z,2.90
2018-09-10T14:49:37.957Z,2.90
2018-09-10T14:51:41.775Z,3.17
2018-09-10T14:53:45.540Z,2.40
2018-09-10T14:55:49.327Z,2.53
2018-09-10T14:57:53.124Z,2.37
2018-09-10T14:59:56.944Z,3.13
2018-09-10T15:02:01.520Z,2.67
2018-09-10T15:04:05.658Z,2.93
2018-09-10T15:06:09.415Z,2.80
2018-09-10T15:08:13.155Z,2.97
2018-09-10T15:10:17.044Z,2.77
2018-09-10T15:12:20.827Z,3.00
2018-09-10T15:14:24.633Z,3.00
2018-09-10T15:16:28.394Z,2.80
2018-09-10T15:18:32.384Z,2.63
2018-09-10T15:20:36.029Z,2.70
2018-09-10T15:22:40.947Z,2.80
2018-09-10T15:24:44.727Z,2.77
2018-09-10T15:26:48.787Z,2.63
2018-09-10T15:28:52.622Z,2.60
2018-09-10T15:30:56.421Z,2.87
2018-09-10T15:33:00.242Z,2.73
2018-09-10T15:35:04.068Z,3.37
2018-09-10T15:37:07.829Z,3.20
2018-09-10T15:39:11.628Z,2.70
2018-09-10T15:41:15.366Z,3.10
2018-09-10T15:43:20.489Z,3.00
2018-09-10T15:45:24.607Z,2.77
2018-09-10T15:47:28.678Z,2.93
2018-09-10T15:49:32.707Z,3.00
2018-09-10T15:51:36.523Z,2.70
2018-09-10T15:53:40.345Z,3.53
2018-09-10T15:55:44.441Z,2.50
2018-09-10T15:57:48.420Z,3.00
2018-09-10T15:59:52.236Z,3.10
2018-09-10T16:01:56.776Z,2.80
2018-09-10T16:04:00.600Z,3.30
2018-09-10T16:06:04.325Z,3.35
2018-09-10T16:08:08.062Z,2.80
2018-09-10T16:10:11.936Z,2.57
2018-09-10T16:12:15.731Z,3.77
2018-09-10T16:14:19.581Z,3.17
2018-09-10T16:16:23.504Z,3.50
2018-09-10T16:18:27.412Z,3.10
2018-09-10T16:20:31.145Z,3.40
2018-09-10T16:22:35.002Z,3.10
2018-09-10T16:24:38.920Z,3.43
2018-09-10T16:26:42.733Z,3.27
2018-09-10T16:28:46.690Z,3.17
2018-09-10T16:30:50.835Z,2.80
2018-09-10T16:32:54.752Z,3.20
2018-09-10T16:34:58.582Z,3.00
2018-09-10T16:37:02.476Z,3.20
2018-09-10T16:39:08.828Z,2.50
2018-09-10T16:41:12.733Z,2.80
2018-09-10T16:43:16.676Z,3.63
2018-09-10T16:45:20.456Z,3.40
2018-09-10T16:47:37.610Z,3.37
2018-09-10T16:49:41.400Z,3.57
2018-09-10T16:51:45.132Z,3.30
2018-09-10T16:53:48.954Z,3.53
2018-09-10T16:55:52.752Z,3.30
2018-09-10T16:57:56.493Z,3.10
2018-09-10T17:00:00.418Z,3.40
2018-09-10T17:02:04.181Z,2.97
2018-09-10T17:04:07.961Z,3.00
2018-09-10T17:06:11.723Z,2.77
2018-09-10T17:08:15.788Z,2.90
2018-09-10T17:10:19.527Z,2.97
2018-09-10T17:12:23.604Z,2.80
2018-09-10T17:14:27.693Z,2.63
2018-09-10T17:16:31.668Z,2.70
2018-09-10T17:18:35.622Z,2.80
2018-09-10T17:20:39.394Z,2.87
2018-09-10T17:22:43.437Z,3.00
2018-09-10T17:24:47.246Z,2.97
2018-09-10T17:26:51.013Z,3.03
2018-09-10T17:28:54.936Z,3.07
2018-09-10T17:30:58.838Z,3.20
2018-09-10T17:33:02.584Z,3.07
2018-09-10T17:35:06.458Z,2.70
2018-09-10T17:37:10.734Z,2.70
2018-09-10T17:39:15.534Z,3.10
2018-09-10T17:41:19.313Z,3.07
2018-09-10T17:43:23.239Z,3.10
2018-09-10T17:45:27.154Z,3.53
2018-09-10T17:47:30.945Z,2.80
2018-09-10T17:49:34.653Z,2.63
2018-09-10T17:51:38.771Z,3.00
2018-09-10T17:53:42.774Z,3.03
2018-09-10T17:55:47.683Z,2.77
2018-09-10T17:57:53.785Z,2.50
2018-09-10T17:59:57.822Z,3.10
2018-09-10T18:02:02.326Z,3.70
2018-09-10T18:04:06.361Z,2.83
2018-09-10T18:06:11.395Z,3.07
2018-09-10T18:08:15.714Z,3.27
2018-09-10T18:10:19.638Z,3.30
2018-09-10T18:12:23.671Z,3.27
2018-09-10T18:14:28.189Z,3.73
2018-09-10T18:16:34.117Z,2.97
2018-09-10T18:18:37.980Z,3.00
2018-09-10T18:20:41.952Z,3.30
2018-09-10T18:22:45.986Z,3.30
2018-09-10T18:24:49.921Z,3.63
2018-09-10T18:26:53.746Z,3.60
2018-09-10T18:28:57.800Z,4.00
2018-09-10T18:31:01.742Z,3.50
2018-09-10T18:33:05.623Z,6.77
2018-09-10T18:35:09.530Z,10.50
2018-09-10T18:37:13.535Z,5.10
2018-09-10T18:39:17.481Z,5.10
2018-09-10T18:41:21.586Z,5.33
2018-09-10T18:43:25.681Z,3.87
2018-09-10T18:45:29.497Z,4.00
2018-09-10T18:47:33.577Z,3.87
2018-09-10T18:49:37.776Z,4.13
2018-09-10T18:51:41.730Z,4.20
2018-09-10T18:53:46.804Z,4.50
2018-09-10T18:55:50.711Z,4.17
2018-09-10T18:57:54.636Z,3.67
2018-09-10T18:59:58.461Z,3.50
2018-09-10T19:02:02.484Z,4.03
2018-09-10T19:04:06.393Z,4.17
2018-09-10T19:06:10.348Z,3.53
2018-09-10T19:08:14.408Z,3.70
2018-09-10T19:10:19.137Z,4.70
2018-09-10T19:12:23.284Z,4.30
2018-09-10T19:14:27.309Z,3.90
2018-09-10T19:16:31.096Z,4.10
2018-09-10T19:18:37.926Z,4.07
2018-09-10T19:20:42.045Z,3.63
2018-09-10T19:22:45.796Z,3.90
2018-09-10T19:24:49.560Z,4.33
2018-09-10T19:26:53.316Z,4.23
2018-09-10T19:28:57.093Z,4.23
2018-09-10T19:31:01.245Z,4.47
2018-09-10T19:33:05.103Z,4.13
2018-09-10T19:35:08.967Z,4.13
2018-09-10T19:37:12.850Z,4.17
2018-09-10T19:39:16.613Z,4.53
2018-09-10T19:41:20.656Z,4.13
2018-09-10T19:43:24.400Z,5.20
2018-09-10T19:45:28.280Z,5.20
2018-09-10T19:47:32.061Z,4.80
2018-09-10T19:49:35.908Z,5.20
2018-09-10T19:51:39.771Z,4.63
2018-09-10T19:53:43.530Z,5.57
2018-09-10T19:55:47.545Z,4.80
2018-09-10T19:57:51.441Z,5.00
2018-09-10T19:59:55.205Z,4.80
2018-09-10T20:01:59.109Z,4.27
2018-09-10T20:04:02.975Z,4.40
2018-09-10T20:06:07.050Z,4.80
2018-09-10T20:08:10.873Z,4.03
2018-09-10T20:10:14.691Z,5.20
2018-09-10T20:12:18.660Z,4.70
2018-09-10T20:14:22.537Z,4.27
2018-09-10T20:16:26.416Z,4.87
2018-09-10T20:18:30.206Z,4.50
2018-09-10T20:20:34.064Z,4.90
2018-09-10T20:22:37.927Z,5.80
2018-09-10T20:24:41.827Z,5.30
2018-09-10T20:26:45.687Z,5.37
2018-09-10T20:28:50.039Z,4.67
2018-09-10T20:30:53.802Z,4.40
2018-09-10T20:32:58.007Z,5.10
2018-09-10T20:35:01.861Z,4.73
2018-09-10T20:37:05.751Z,4.87
2018-09-10T20:39:11.809Z,4.83
2018-09-10T20:41:15.922Z,5.00
2018-09-10T20:43:19.756Z,5.43
2018-09-10T20:45:23.646Z,5.90
2018-09-10T20:47:27.478Z,4.10
2018-09-10T20:49:31.196Z,5.23
2018-09-10T20:51:35.057Z,5.40
2018-09-10T20:53:38.864Z,5.10
2018-09-10T20:55:42.742Z,5.40
2018-09-10T20:57:46.572Z,6.07
2018-09-10T20:59:50.355Z,5.60
2018-09-10T21:01:54.126Z,5.70
2018-09-10T21:03:57.937Z,6.80
2018-09-10T21:06:01.650Z,6.40
2018-09-10T21:08:05.451Z,6.73
2018-09-10T21:10:09.431Z,6.30
2018-09-10T21:12:13.309Z,5.77
2018-09-10T21:14:17.136Z,5.93
2018-09-10T21:16:20.952Z,5.73
2018-09-10T21:18:24.843Z,6.63
2018-09-10T21:20:28.602Z,5.77
2018-09-10T21:22:32.362Z,5.70
2018-09-10T21:24:36.147Z,6.47
2018-09-10T21:26:39.903Z,6.07
2018-09-10T21:28:43.686Z,7.23
2018-09-10T21:30:47.466Z,6.33
2018-09-10T21:32:51.240Z,6.90
2018-09-10T21:34:55.057Z,6.87
2018-09-10T21:36:58.826Z,6.57
2018-09-10T21:39:02.783Z,7.43
2018-09-10T21:41:06.645Z,8.03
2018-09-10T21:43:10.564Z,7.50
2018-09-10T21:45:14.348Z,7.70
2018-09-10T21:47:18.199Z,7.70
2018-09-10T21:49:22.098Z,8.73
2018-09-10T21:51:25.916Z,8.13
2018-09-10T21:53:29.775Z,6.97
2018-09-10T21:55:33.554Z,7.27
2018-09-10T21:57:37.320Z,6.27
2018-09-10T21:59:41.651Z,7.07
2018-09-10T22:01:45.396Z,6.90
2018-09-10T22:03:49.144Z,6.43
2018-09-10T22:05:53.420Z,6.50
2018-09-10T22:07:57.155Z,7.87
2018-09-10T22:10:01.019Z,7.50
2018-09-10T22:12:04.922Z,8.20
2018-09-10T22:14:09.300Z,7.80
2018-09-10T22:16:13.086Z,8.40
2018-09-10T22:18:16.868Z,7.43
2018-09-10T22:20:20.681Z,8.87
2018-09-10T22:22:24.395Z,9.30
2018-09-10T22:24:28.177Z,8.03
2018-09-10T22:26:31.980Z,9.97
2018-09-10T22:28:35.923Z,9.40
2018-09-10T22:30:39.652Z,10.07
2018-09-10T22:32:43.498Z,10.43
2018-09-10T22:34:47.216Z,9.10
2018-09-10T22:36:51.255Z,9.40
2018-09-10T22:38:54.969Z,8.83
2018-09-10T22:40:58.791Z,8.18
2018-09-10T22:43:02.561Z,9.60
2018-09-10T22:45:06.445Z,8.53
2018-09-10T22:47:10.177Z,7.70
2018-09-10T22:49:13.943Z,8.10
2018-09-10T22:51:17.764Z,9.23
2018-09-10T22:53:21.516Z,8.60
2018-09-10T22:55:25.296Z,9.57
2018-09-10T22:57:29.063Z,10.13
2018-09-10T22:59:32.768Z,10.10
2018-09-10T23:01:36.684Z,9.03
2018-09-10T23:03:40.388Z,9.47
2018-09-10T23:05:44.306Z,9.27
2018-09-10T23:07:48.178Z,9.50
2018-09-10T23:09:52.036Z,9.40
2018-09-10T23:11:55.860Z,9.60
2018-09-10T23:13:59.577Z,9.53
2018-09-10T23:16:03.384Z,10.00
2018-09-10T23:18:07.192Z,9.00
2018-09-10T23:20:10.985Z,8.53
2018-09-10T23:22:14.780Z,7.97
2018-09-10T23:24:18.579Z,8.10
2018-09-10T23:26:22.464Z,7.80
2018-09-10T23:28:26.261Z,7.03
2018-09-10T23:30:30.070Z,7.20
2018-09-10T23:32:33.801Z,7.00
2018-09-10T23:34:37.685Z,6.90
2018-09-10T23:36:41.433Z,7.40
2018-09-10T23:38:46.010Z,7.13
2018-09-10T23:40:49.773Z,6.13
2018-09-10T23:42:53.535Z,6.83
2018-09-10T23:44:57.439Z,6.23
2018-09-10T23:47:01.264Z,5.90
2018-09-10T23:49:05.154Z,6.70
2018-09-10T23:51:09.075Z,5.03
2018-09-10T23:53:13.013Z,4.93
2018-09-10T23:55:16.762Z,5.53
2018-09-10T23:57:20.566Z,4.50
2018-09-10T23:59:24.373Z,4.83
